createdAt,value
2018-08-04T00:01:53.915Z,25.50
2018-08-04T00:04:22.602Z,25.40
2018-08-04T00:06:51.055Z,25.30
2018-08-04T00:09:20.108Z,25.40
2018-08-04T00:11:48.558Z,25.60
2018-08-04T00:14:17.021Z,25.70
2018-08-04T00:16:45.794Z,25.60
2018-08-04T00:19:14.238Z,25.40
2018-08-04T00:21:42.710Z,25.10
2018-08-04T00:24:11.174Z,25.20
2018-08-04T00:26:39.606Z,25.30
2018-08-04T00:29:08.070Z,25.30
2018-08-04T00:31:36.531Z,25.00
2018-08-04T00:34:04.971Z,24.80
2018-08-04T00:36:33.674Z,24.90
2018-08-04T00:39:02.154Z,25.00
2018-08-04T00:41:30.840Z,25.10
2018-08-04T00:43:59.897Z,25.10
2018-08-04T00:46:28.617Z,25.10
2018-08-04T00:48:57.713Z,24.90
2018-08-04T00:51:26.155Z,24.70
2018-08-04T00:53:54.614Z,24.50
2018-08-04T00:58:51.250Z,24.50
2018-08-04T01:01:20.101Z,24.70
2018-08-04T01:03:48.534Z,24.80
2018-08-04T01:06:17.064Z,24.70
2018-08-04T01:08:45.899Z,24.50
2018-08-04T01:11:15.551Z,24.30
2018-08-04T01:13:44.178Z,24.40
2018-08-04T01:16:12.908Z,24.30
2018-08-04T01:18:41.383Z,24.20
2018-08-04T01:21:10.142Z,24.20
2018-08-04T01:23:38.897Z,24.10
2018-08-04T01:26:07.394Z,23.90
2018-08-04T01:31:04.035Z,24.00
2018-08-04T01:33:32.807Z,24.10
2018-08-04T01:36:01.303Z,24.00
2018-08-04T01:38:30.091Z,24.20
2018-08-04T01:40:58.596Z,24.20
2018-08-04T01:43:27.267Z,24.20
2018-08-04T01:45:55.741Z,24.30
2018-08-04T01:48:24.175Z,24.10
2018-08-04T01:50:52.891Z,24.00
2018-08-04T01:53:21.341Z,24.00
2018-08-04T01:55:49.850Z,24.10
2018-08-04T01:58:18.419Z,24.00
2018-08-04T02:00:46.930Z,24.00
2018-08-04T02:03:15.439Z,24.00
2018-08-04T02:05:43.951Z,24.00
2018-08-04T02:08:13.486Z,24.00
2018-08-04T02:10:41.986Z,24.00
2018-08-04T02:13:10.430Z,24.00
2018-08-04T02:15:39.268Z,24.00
2018-08-04T02:18:07.713Z,23.90
2018-08-04T02:20:36.184Z,23.80
2018-08-04T02:23:04.914Z,23.80
2018-08-04T02:25:33.638Z,23.80
2018-08-04T02:28:02.066Z,23.70
2018-08-04T02:30:30.539Z,23.70
2018-08-04T02:32:58.990Z,23.70
2018-08-04T02:35:28.093Z,23.80
2018-08-04T02:37:56.539Z,23.70
2018-08-04T02:40:25.346Z,23.70
2018-08-04T02:42:54.117Z,23.70
2018-08-04T02:45:22.594Z,23.70
2018-08-04T02:47:51.034Z,23.70
2018-08-04T02:50:19.508Z,23.80
2018-08-04T02:52:47.943Z,24.00
2018-08-04T02:55:16.399Z,23.90
2018-08-04T02:57:44.839Z,23.80
2018-08-04T03:00:13.624Z,23.90
2018-08-04T03:02:42.352Z,23.90
2018-08-04T03:05:10.876Z,24.10
2018-08-04T03:07:39.362Z,23.90
2018-08-04T03:10:07.899Z,23.90
2018-08-04T03:12:36.631Z,23.70
2018-08-04T03:15:05.618Z,23.50
2018-08-04T03:17:34.425Z,23.40
2018-08-04T03:20:02.927Z,23.30
2018-08-04T03:22:31.610Z,23.20
2018-08-04T03:25:00.394Z,23.40
2018-08-04T03:27:28.863Z,23.60
2018-08-04T03:29:57.343Z,23.60
2018-08-04T03:32:25.813Z,23.50
2018-08-04T03:34:54.595Z,23.50
2018-08-04T03:37:23.063Z,23.30
2018-08-04T03:39:51.510Z,23.30
2018-08-04T03:42:19.967Z,23.40
2018-08-04T03:44:48.411Z,23.50
2018-08-04T03:47:17.175Z,23.30
2018-08-04T03:49:45.675Z,23.40
2018-08-04T03:52:14.171Z,23.20
2018-08-04T03:54:42.659Z,23.40
2018-08-04T03:57:11.144Z,23.40
2018-08-04T03:59:39.679Z,23.50
2018-08-04T04:02:08.104Z,23.30
2018-08-04T04:04:36.593Z,23.20
2018-08-04T04:07:05.154Z,23.10
2018-08-04T04:09:33.651Z,22.80
2018-08-04T04:12:02.125Z,22.60
2018-08-04T04:14:30.575Z,22.60
2018-08-04T04:16:59.047Z,22.50
2018-08-04T04:19:27.519Z,22.40
2018-08-04T04:21:56.279Z,22.40
2018-08-04T04:24:24.988Z,22.40
2018-08-04T04:26:54.087Z,22.70
2018-08-04T04:29:22.903Z,22.90
2018-08-04T04:31:51.374Z,23.00
2018-08-04T04:34:20.157Z,23.00
2018-08-04T04:36:48.664Z,22.90
2018-08-04T04:39:17.128Z,22.90
2018-08-04T04:44:14.031Z,23.10
2018-08-04T04:46:42.510Z,23.20
2018-08-04T04:49:12.051Z,23.10
2018-08-04T04:51:41.478Z,23.10
2018-08-04T04:54:09.995Z,23.30
2018-08-04T04:56:38.526Z,23.30
2018-08-04T04:59:06.999Z,23.20
2018-08-04T05:01:35.731Z,23.30
2018-08-04T05:04:04.194Z,23.30
2018-08-04T05:06:32.680Z,23.20
2018-08-04T05:09:01.371Z,23.20
2018-08-04T05:11:29.883Z,23.30
2018-08-04T05:13:58.315Z,23.50
2018-08-04T05:16:26.798Z,23.60
2018-08-04T05:18:59.041Z,23.80
2018-08-04T05:21:29.717Z,23.90
2018-08-04T05:23:58.510Z,24.00
2018-08-04T05:26:27.475Z,24.00
2018-08-04T05:28:56.517Z,24.10
2018-08-04T05:33:53.481Z,24.00
2018-08-04T05:36:22.514Z,24.10
2018-08-04T05:38:51.303Z,24.10
2018-08-04T05:41:20.090Z,24.30
2018-08-04T05:43:49.082Z,24.50
2018-08-04T05:46:17.599Z,24.60
2018-08-04T05:48:46.062Z,24.40
2018-08-04T05:51:14.569Z,24.30
2018-08-04T05:53:43.544Z,24.20
2018-08-04T05:56:12.030Z,24.40
2018-08-04T06:01:08.747Z,24.60
2018-08-04T06:03:37.487Z,24.70
2018-08-04T06:06:06.080Z,24.70
2018-08-04T06:08:35.203Z,24.50
2018-08-04T06:11:03.683Z,24.70
2018-08-04T06:13:32.734Z,24.60
2018-08-04T06:16:01.432Z,24.70
2018-08-04T06:18:29.906Z,24.70
2018-08-04T06:20:58.431Z,24.90
2018-08-04T06:23:26.942Z,25.10
2018-08-04T06:28:23.615Z,25.50
2018-08-04T06:30:52.071Z,25.80
2018-08-04T06:33:20.830Z,25.90
2018-08-04T06:35:49.351Z,26.00
2018-08-04T06:38:18.172Z,26.00
2018-08-04T06:40:46.617Z,26.00
2018-08-04T06:43:15.091Z,26.10
2018-08-04T06:45:43.534Z,26.30
2018-08-04T06:48:12.031Z,26.40
2018-08-04T06:53:08.675Z,26.40
2018-08-04T06:55:37.387Z,26.50
2018-08-04T06:58:06.245Z,26.70
2018-08-04T07:00:34.683Z,27.00
2018-08-04T07:03:03.223Z,27.30
2018-08-04T07:05:32.258Z,27.40
2018-08-04T07:08:00.783Z,27.70
2018-08-04T07:10:29.273Z,27.60
2018-08-04T07:12:58.062Z,27.80
2018-08-04T07:15:26.524Z,27.60
2018-08-04T07:17:55.321Z,27.90
2018-08-04T07:22:51.970Z,28.40
2018-08-04T07:25:20.675Z,28.50
2018-08-04T07:27:49.160Z,28.40
2018-08-04T07:30:17.622Z,28.30
2018-08-04T07:32:46.302Z,28.60
2018-08-04T07:35:15.091Z,28.80
2018-08-04T07:37:43.878Z,28.40
2018-08-04T07:40:12.357Z,28.40
2018-08-04T07:42:40.866Z,28.50
2018-08-04T07:45:09.327Z,28.60
2018-08-04T07:47:37.843Z,28.80
2018-08-04T07:50:06.749Z,29.10
2018-08-04T07:52:35.270Z,29.20
2018-08-04T07:55:03.811Z,29.20
2018-08-04T07:57:32.566Z,29.20
2018-08-04T08:00:01.344Z,29.20
2018-08-04T08:02:29.832Z,29.20
2018-08-04T08:04:58.360Z,29.40
2018-08-04T08:07:27.079Z,29.60
2018-08-04T08:09:55.575Z,30.10
2018-08-04T08:12:24.319Z,30.10
2018-08-04T08:14:52.991Z,30.30
2018-08-04T08:17:21.565Z,30.60
2018-08-04T08:19:50.278Z,30.90
2018-08-04T08:22:18.787Z,31.30
2018-08-04T08:24:47.264Z,31.50
2018-08-04T08:27:15.774Z,31.30
2018-08-04T08:29:44.589Z,31.50
2018-08-04T08:32:13.312Z,31.60
2018-08-04T08:34:41.778Z,31.90
2018-08-04T08:37:10.273Z,31.90
2018-08-04T08:39:39.003Z,31.90
2018-08-04T08:42:07.516Z,32.00
2018-08-04T08:44:36.270Z,32.20
2018-08-04T08:47:04.775Z,32.40
2018-08-04T08:49:33.286Z,32.40
2018-08-04T08:52:02.191Z,32.80
2018-08-04T08:56:59.100Z,32.60
2018-08-04T08:59:27.834Z,33.00
2018-08-04T09:01:56.279Z,33.30
2018-08-04T09:04:24.747Z,33.80
2018-08-04T09:06:53.229Z,33.90
2018-08-04T09:09:21.714Z,33.60
2018-08-04T09:11:50.220Z,33.50
2018-08-04T09:14:18.729Z,33.80
2018-08-04T09:16:47.174Z,33.70
2018-08-04T09:19:15.658Z,33.00
2018-08-04T09:24:12.351Z,33.90
2018-08-04T09:26:40.812Z,33.90
2018-08-04T09:29:09.536Z,34.00
2018-08-04T09:31:38.471Z,34.30
2018-08-04T09:34:07.002Z,34.50
2018-08-04T09:36:35.730Z,34.30
2018-08-04T09:39:06.097Z,34.00
2018-08-04T09:41:35.947Z,33.80
2018-08-04T09:44:04.426Z,34.20
2018-08-04T09:46:33.229Z,34.50
2018-08-04T09:49:01.735Z,35.00
2018-08-04T09:51:30.436Z,35.20
2018-08-04T09:53:59.539Z,35.30
2018-08-04T09:56:28.007Z,35.20
2018-08-04T09:58:57.140Z,35.50
2018-08-04T10:01:31.022Z,35.70
2018-08-04T10:04:00.113Z,35.90
2018-08-04T10:06:28.585Z,36.20
2018-08-04T10:08:57.047Z,36.00
2018-08-04T10:11:25.605Z,36.40
2018-08-04T10:13:54.291Z,36.60
2018-08-04T10:16:22.781Z,36.70
2018-08-04T10:18:51.569Z,36.90
2018-08-04T10:21:20.126Z,37.00
2018-08-04T10:23:48.938Z,36.60
2018-08-04T10:26:17.687Z,36.00
2018-08-04T10:28:46.167Z,35.90
2018-08-04T10:31:14.951Z,35.30
2018-08-04T10:33:43.454Z,35.40
2018-08-04T10:36:11.907Z,35.70
2018-08-04T10:38:40.463Z,36.00
2018-08-04T10:41:08.889Z,36.00
2018-08-04T10:46:05.593Z,36.20
2018-08-04T10:48:34.067Z,36.00
2018-08-04T10:51:02.550Z,35.70
2018-08-04T10:53:31.059Z,35.70
2018-08-04T10:55:59.557Z,36.00
2018-08-04T10:58:28.305Z,36.10
2018-08-04T11:00:57.015Z,36.00
2018-08-04T11:03:25.507Z,36.00
2018-08-04T11:05:55.111Z,36.20
2018-08-04T11:08:23.570Z,36.30
2018-08-04T11:10:52.041Z,36.00
2018-08-04T11:13:21.307Z,36.30
2018-08-04T11:15:49.842Z,36.10
2018-08-04T11:18:18.319Z,36.10
2018-08-04T11:20:47.106Z,36.20
2018-08-04T11:23:15.577Z,36.20
2018-08-04T11:25:44.078Z,36.30
2018-08-04T11:28:12.839Z,36.30
2018-08-04T11:30:41.614Z,36.80
2018-08-04T11:33:10.077Z,37.00
2018-08-04T11:35:38.623Z,37.30
2018-08-04T11:38:07.067Z,37.30
2018-08-04T11:40:35.895Z,36.70
2018-08-04T11:43:04.338Z,36.90
2018-08-04T11:45:32.839Z,36.70
2018-08-04T11:48:01.300Z,36.80
2018-08-04T11:50:30.122Z,37.10
2018-08-04T11:52:58.641Z,37.10
2018-08-04T11:55:27.111Z,37.40
2018-08-04T11:57:55.971Z,36.80
2018-08-04T12:00:24.464Z,36.70
2018-08-04T12:02:52.907Z,36.30
2018-08-04T12:05:21.427Z,36.40
2018-08-04T12:07:50.227Z,36.40
2018-08-04T12:10:19.288Z,36.20
2018-08-04T12:12:47.903Z,35.80
2018-08-04T12:17:45.024Z,36.00
2018-08-04T12:20:13.489Z,35.60
2018-08-04T12:22:41.997Z,35.80
2018-08-04T12:25:10.463Z,35.40
2018-08-04T12:27:39.639Z,35.50
2018-08-04T12:30:09.131Z,35.70
2018-08-04T12:32:38.244Z,35.80
2018-08-04T12:35:08.036Z,35.90
2018-08-04T12:37:36.889Z,36.30
2018-08-04T12:40:05.394Z,36.40
2018-08-04T12:42:33.887Z,36.50
2018-08-04T12:45:02.559Z,36.70
2018-08-04T12:47:31.100Z,36.70
2018-08-04T12:50:00.026Z,36.80
2018-08-04T12:52:28.473Z,36.90
2018-08-04T12:54:56.963Z,37.20
2018-08-04T12:57:25.447Z,37.50
2018-08-04T12:59:53.950Z,37.50
2018-08-04T13:02:22.725Z,37.40
2018-08-04T13:04:51.302Z,37.60
2018-08-04T13:07:19.753Z,37.90
2018-08-04T13:09:48.499Z,37.80
2018-08-04T13:12:16.941Z,37.70
2018-08-04T13:14:45.464Z,37.30
2018-08-04T13:17:13.956Z,37.70
2018-08-04T13:19:42.445Z,38.00
2018-08-04T13:22:10.914Z,38.00
2018-08-04T13:24:39.373Z,37.70
2018-08-04T13:27:08.067Z,37.10
2018-08-04T13:29:36.618Z,36.70
2018-08-04T13:32:05.120Z,36.30
2018-08-04T13:34:33.651Z,36.10
2018-08-04T13:37:02.195Z,35.60
2018-08-04T13:39:30.904Z,35.70
2018-08-04T13:44:27.567Z,35.50
2018-08-04T13:46:56.062Z,35.60
2018-08-04T13:49:24.596Z,35.60
2018-08-04T13:51:53.099Z,35.60
2018-08-04T13:54:21.659Z,35.70
2018-08-04T13:56:50.159Z,35.50
2018-08-04T13:59:18.622Z,35.60
2018-08-04T14:01:47.124Z,35.70
2018-08-04T14:04:15.903Z,35.40
2018-08-04T14:06:44.731Z,35.40
2018-08-04T14:09:13.247Z,35.30
2018-08-04T14:11:41.780Z,35.00
2018-08-04T14:14:10.616Z,34.80
2018-08-04T14:16:39.160Z,34.50
2018-08-04T14:19:07.728Z,34.10
2018-08-04T14:21:36.591Z,34.30
2018-08-04T14:24:05.140Z,34.30
2018-08-04T14:26:33.618Z,34.40
2018-08-04T14:29:02.180Z,33.90
2018-08-04T14:31:30.728Z,34.10
2018-08-04T14:33:59.221Z,34.30
2018-08-04T14:36:27.709Z,34.40
2018-08-04T14:38:56.201Z,34.00
2018-08-04T14:41:25.066Z,34.30
2018-08-04T14:43:53.566Z,34.30
2018-08-04T14:46:22.136Z,34.30
2018-08-04T14:48:50.608Z,34.00
2018-08-04T14:51:19.192Z,34.20
2018-08-04T14:53:47.641Z,34.40
2018-08-04T14:56:16.160Z,35.00
2018-08-04T14:58:45.905Z,35.40
2018-08-04T15:01:15.652Z,35.80
2018-08-04T15:03:44.438Z,36.00
2018-08-04T15:06:12.975Z,36.40
2018-08-04T15:08:41.754Z,36.10
2018-08-04T15:11:10.245Z,35.90
2018-08-04T15:13:38.724Z,35.60
2018-08-04T15:16:07.526Z,35.30
2018-08-04T15:18:36.238Z,35.30
2018-08-04T15:21:04.735Z,35.10
2018-08-04T15:23:33.189Z,34.80
2018-08-04T15:26:01.695Z,34.70
2018-08-04T15:28:30.270Z,34.90
2018-08-04T15:30:58.775Z,34.90
2018-08-04T15:33:27.267Z,35.00
2018-08-04T15:35:56.011Z,35.40
2018-08-04T15:38:24.849Z,36.00
2018-08-04T15:40:53.344Z,36.40
2018-08-04T15:43:21.840Z,36.60
2018-08-04T15:45:50.690Z,37.10
2018-08-04T15:48:19.137Z,37.40
2018-08-04T15:50:47.731Z,37.70
2018-08-04T15:53:16.476Z,37.70
2018-08-04T15:55:44.925Z,37.80
2018-08-04T15:58:13.412Z,38.20
2018-08-04T16:00:41.904Z,38.20
2018-08-04T16:03:10.388Z,38.60
2018-08-04T16:05:38.876Z,38.70
2018-08-04T16:08:07.458Z,37.70
2018-08-04T16:10:35.923Z,36.90
2018-08-04T16:13:04.427Z,36.50
2018-08-04T16:15:32.914Z,36.00
2018-08-04T16:18:01.397Z,35.40
2018-08-04T16:20:29.857Z,35.30
2018-08-04T16:22:58.626Z,35.40
2018-08-04T16:25:27.356Z,35.40
2018-08-04T16:27:55.839Z,35.30
2018-08-04T16:30:24.577Z,35.10
2018-08-04T16:32:53.074Z,35.00
2018-08-04T16:35:21.559Z,34.90
2018-08-04T16:37:50.067Z,34.60
2018-08-04T16:40:18.527Z,34.60
2018-08-04T16:42:47.014Z,34.60
2018-08-04T16:45:15.796Z,34.60
2018-08-04T16:47:44.305Z,34.50
2018-08-04T16:50:12.776Z,34.70
2018-08-04T16:52:41.245Z,34.70
2018-08-04T16:55:09.730Z,34.70
2018-08-04T16:57:38.214Z,34.70
2018-08-04T17:00:07.523Z,34.60
2018-08-04T17:02:36.295Z,34.40
2018-08-04T17:05:04.856Z,34.20
2018-08-04T17:07:33.354Z,34.00
2018-08-04T17:10:01.848Z,33.80
2018-08-04T17:12:30.383Z,33.50
2018-08-04T17:14:58.878Z,33.50
2018-08-04T17:17:27.404Z,33.40
2018-08-04T17:19:56.761Z,33.40
2018-08-04T17:22:25.598Z,33.30
2018-08-04T17:24:54.112Z,33.30
2018-08-04T17:27:22.596Z,33.30
2018-08-04T17:29:51.127Z,33.10
2018-08-04T17:32:19.603Z,33.00
2018-08-04T17:34:48.086Z,33.00
2018-08-04T17:37:16.661Z,33.00
2018-08-04T17:39:45.355Z,32.90
2018-08-04T17:42:13.827Z,32.80
2018-08-04T17:44:42.316Z,32.70
2018-08-04T17:47:10.819Z,32.60
2018-08-04T17:49:39.328Z,32.50
2018-08-04T17:52:07.824Z,32.50
2018-08-04T17:54:36.545Z,32.50
2018-08-04T17:57:05.258Z,32.50
2018-08-04T17:59:34.306Z,32.50
2018-08-04T18:02:02.795Z,32.40
2018-08-04T18:04:31.257Z,32.40
2018-08-04T18:06:59.774Z,32.20
2018-08-04T18:09:28.248Z,32.10
2018-08-04T18:11:56.757Z,32.00
2018-08-04T18:14:25.192Z,31.90
2018-08-04T18:16:53.650Z,31.80
2018-08-04T18:19:22.108Z,31.80
2018-08-04T18:21:50.671Z,31.70
2018-08-04T18:24:19.142Z,31.50
2018-08-04T18:29:15.760Z,31.40
2018-08-04T18:31:44.212Z,31.30
2018-08-04T18:34:12.757Z,31.20
2018-08-04T18:39:10.244Z,31.30
2018-08-04T18:41:38.759Z,31.20
2018-08-04T18:44:07.311Z,31.10
2018-08-04T18:46:35.773Z,31.20
2018-08-04T18:49:04.255Z,31.20
2018-08-04T18:51:32.712Z,31.10
2018-08-04T18:54:01.203Z,30.90
2018-08-04T18:56:29.675Z,31.00
2018-08-04T19:01:26.333Z,30.90
2018-08-04T19:03:54.809Z,30.90
2018-08-04T19:06:23.359Z,30.80
2018-08-04T19:08:52.186Z,30.80
2018-08-04T19:11:20.667Z,30.60
2018-08-04T19:13:49.197Z,30.50
2018-08-04T19:16:17.711Z,30.50
2018-08-04T19:18:46.176Z,30.50
2018-08-04T19:21:14.626Z,30.40
2018-08-04T19:23:43.153Z,30.30
2018-08-04T19:26:11.616Z,30.10
2018-08-04T19:28:40.796Z,30.00
2018-08-04T19:31:09.262Z,29.90
2018-08-04T19:33:37.734Z,29.90
2018-08-04T19:36:06.230Z,29.80
2018-08-04T19:38:34.720Z,29.60
2018-08-04T19:41:03.186Z,29.60
2018-08-04T19:43:31.675Z,29.60
2018-08-04T19:46:00.441Z,29.50
2018-08-04T19:48:28.936Z,29.40
2018-08-04T19:50:57.688Z,29.40
2018-08-04T19:53:26.481Z,29.50
2018-08-04T19:55:54.926Z,29.40
2018-08-04T19:58:23.416Z,29.40
2018-08-04T20:00:51.910Z,29.20
2018-08-04T20:03:20.403Z,29.20
2018-08-04T20:05:48.875Z,29.40
2018-08-04T20:08:17.475Z,29.20
2018-08-04T20:10:46.031Z,29.10
2018-08-04T20:13:14.612Z,28.90
2018-08-04T20:15:43.183Z,28.90
2018-08-04T20:18:11.695Z,28.80
2018-08-04T20:20:40.151Z,28.60
2018-08-04T20:23:08.693Z,28.50
2018-08-04T20:25:37.155Z,28.50
2018-08-04T20:28:06.020Z,28.40
2018-08-04T20:30:34.490Z,28.40
2018-08-04T20:33:05.307Z,28.40
2018-08-04T20:35:33.846Z,28.30
2018-08-04T20:40:30.450Z,28.10
2018-08-04T20:42:58.908Z,28.10
2018-08-04T20:45:27.386Z,28.00
2018-08-04T20:47:55.883Z,28.00
2018-08-04T20:50:24.363Z,27.90
2018-08-04T20:52:52.892Z,27.90
2018-08-04T20:55:21.377Z,27.90
2018-08-04T20:57:49.843Z,28.00
2018-08-04T21:02:46.478Z,27.90
2018-08-04T21:05:15.021Z,27.80
2018-08-04T21:07:43.483Z,27.70
2018-08-04T21:10:11.971Z,27.60
2018-08-04T21:12:40.441Z,27.50
2018-08-04T21:15:09.041Z,27.40
2018-08-04T21:17:37.503Z,27.50
2018-08-04T21:20:06.364Z,27.40
2018-08-04T21:22:34.846Z,27.40
2018-08-04T21:25:03.386Z,27.40
2018-08-04T21:27:31.972Z,27.30
2018-08-04T21:30:01.071Z,27.30
2018-08-04T21:34:57.687Z,27.30
2018-08-04T21:37:26.158Z,27.10
2018-08-04T21:39:54.727Z,27.10
2018-08-04T21:42:23.211Z,27.10
2018-08-04T21:44:51.982Z,27.20
2018-08-04T21:47:20.455Z,27.10
2018-08-04T21:49:49.459Z,27.00
2018-08-04T21:52:17.964Z,26.70
2018-08-04T21:54:46.448Z,26.50
2018-08-04T21:57:15.163Z,26.60
2018-08-04T21:59:43.819Z,26.70
2018-08-04T22:02:12.297Z,26.70
2018-08-04T22:04:40.780Z,26.60
2018-08-04T22:07:48.301Z,26.40
2018-08-04T22:10:17.136Z,26.30
2018-08-04T22:12:45.898Z,26.20
2018-08-04T22:15:15.370Z,26.20
2018-08-04T22:20:14.638Z,26.10
2018-08-04T22:22:43.473Z,26.30
2018-08-04T22:25:13.519Z,26.00
2018-08-04T22:27:42.057Z,26.00
2018-08-04T22:30:12.821Z,26.10
2018-08-04T22:32:41.893Z,26.00
2018-08-04T22:35:10.558Z,25.90
2018-08-04T22:37:39.601Z,26.00
2018-08-04T22:40:09.281Z,26.00
2018-08-04T22:42:38.058Z,25.90
2018-08-04T22:45:55.272Z,25.80
2018-08-04T22:48:24.231Z,26.00
2018-08-04T22:50:52.690Z,25.90
2018-08-04T22:53:21.158Z,25.80
2018-08-04T22:55:49.674Z,25.80
2018-08-04T22:58:18.171Z,25.80
2018-08-04T23:03:15.253Z,25.70
2018-08-04T23:05:43.920Z,25.70
2018-08-04T23:08:13.133Z,25.70
2018-08-04T23:10:42.035Z,25.70
2018-08-04T23:13:11.338Z,25.60
2018-08-04T23:15:39.912Z,25.70
2018-08-04T23:18:08.831Z,25.50
2018-08-04T23:20:37.418Z,25.40
2018-08-04T23:23:06.231Z,25.40
2018-08-04T23:25:34.728Z,25.50
2018-08-04T23:28:03.470Z,25.50
2018-08-04T23:30:32.346Z,25.40
2018-08-04T23:33:01.107Z,25.50
2018-08-04T23:35:29.643Z,25.30
2018-08-04T23:37:58.088Z,25.40
2018-08-04T23:40:26.650Z,25.40
2018-08-04T23:42:55.105Z,25.30
2018-08-04T23:45:23.684Z,25.20
2018-08-04T23:47:52.136Z,25.00
2018-08-04T23:50:20.913Z,25.10
2018-08-04T23:52:49.667Z,25.10
2018-08-04T23:55:19.034Z,25.10
2018-08-04T23:57:47.482Z,24.90
